17°C Temp
13°C Dewpoint
77% Humidity
Temperature
27 KM/H
17 MPH
15 KTS
40°
North East

Wind Speed
Mostly Scattered
Clouds
Pressure 1020.92 (hPa) - 30.15 (in)
Visibility 6.2 (mi) - 10.0 (km)

Current Conditions
LIPR
Location 4(km)
Metar :LIPR 290020Z AUTO 04015KT 9999 SCT062/// BKN150/// 17/13 Q1021
Fri 29th May 02:20 am

Airport
  Metar Aviation API Data Provided by https://www.checkwx.com/ PHP scripts by weather34.com ©2020